createdAt,value
2018-09-12T00:05:03.815Z,60.4
2018-09-12T00:21:51.347Z,60.4
2018-09-12T00:38:39.977Z,60.0
2018-09-12T00:55:28.546Z,60.0
2018-09-12T01:12:17.846Z,60.0
2018-09-12T01:29:06.089Z,60.8
2018-09-12T01:45:54.554Z,60.8
2018-09-12T02:02:43.146Z,60.8
2018-09-12T02:19:31.800Z,61.2
2018-09-12T02:36:20.468Z,61.2
2018-09-12T02:53:09.157Z,61.2
2018-09-12T03:09:57.715Z,61.2
2018-09-12T03:26:47.153Z,61.6
2018-09-12T03:43:34.925Z,61.6
2018-09-12T04:00:23.566Z,61.6
2018-09-12T04:17:12.065Z,61.6
2018-09-12T04:34:00.625Z,61.6
2018-09-12T04:50:49.102Z,62.0
2018-09-12T05:07:37.584Z,62.0
2018-09-12T05:24:26.079Z,62.4
2018-09-12T05:41:14.438Z,62.8
2018-09-12T05:58:02.816Z,63.2
2018-09-12T06:14:50.969Z,63.6
2018-09-12T06:31:39.363Z,63.6
2018-09-12T06:48:27.679Z,63.6
2018-09-12T07:05:16.012Z,63.6
2018-09-12T07:22:04.409Z,64.0
2018-09-12T07:38:52.779Z,64.0
2018-09-12T07:55:41.956Z,64.4
2018-09-12T08:12:30.954Z,64.4
2018-09-12T08:29:19.959Z,64.4
2018-09-12T08:46:09.304Z,64.8
2018-09-12T09:02:58.914Z,64.8
2018-09-12T09:19:48.201Z,64.8
2018-09-12T09:36:37.710Z,64.8
2018-09-12T09:53:27.209Z,65.2
2018-09-12T10:10:16.869Z,64.8
2018-09-12T10:27:06.827Z,64.8
2018-09-12T10:37:12.270Z,64.4
2018-09-12T10:54:01.058Z,64.8
2018-09-12T11:10:49.393Z,65.2
2018-09-12T11:27:37.495Z,64.4
2018-09-12T11:44:25.473Z,64.4
2018-09-12T12:01:13.159Z,64.4
2018-09-12T12:18:00.734Z,64.8
2018-09-12T12:34:48.468Z,64.0
2018-09-12T12:51:35.878Z,64.0
2018-09-12T13:08:23.201Z,64.8
2018-09-12T13:25:10.830Z,64.4
2018-09-12T13:41:58.642Z,64.4
2018-09-12T13:58:46.187Z,64.8
2018-09-12T14:15:33.677Z,65.2
2018-09-12T14:32:21.891Z,64.8
2018-09-12T14:49:09.037Z,64.4
2018-09-12T15:05:57.163Z,64.0
2018-09-12T15:22:45.362Z,64.0
2018-09-12T15:39:33.616Z,63.6
2018-09-12T15:56:21.634Z,63.6
2018-09-12T16:13:09.814Z,63.6
2018-09-12T16:29:58.033Z,63.6
2018-09-12T16:46:46.030Z,63.6
2018-09-12T17:03:34.044Z,63.6
2018-09-12T17:20:22.164Z,63.6
2018-09-12T17:37:10.447Z,63.6
2018-09-12T17:53:58.637Z,63.6
2018-09-12T18:10:46.791Z,63.2
2018-09-12T18:27:34.759Z,63.2
2018-09-12T18:44:22.147Z,63.6
2018-09-12T19:01:09.403Z,64.0
2018-09-12T19:17:56.714Z,64.8
2018-09-12T19:34:44.102Z,64.0
2018-09-12T19:51:31.176Z,64.4
2018-09-12T20:08:18.226Z,64.0
2018-09-12T20:25:04.937Z,64.0
2018-09-12T20:41:51.978Z,64.4
2018-09-12T20:58:38.575Z,64.0
2018-09-12T21:05:21.149Z,63.6
2018-09-12T21:22:07.017Z,64.0
2018-09-12T21:38:53.021Z,63.2
2018-09-12T21:55:38.115Z,65.2
2018-09-12T22:05:41.222Z,64.8
2018-09-12T22:22:27.288Z,63.6
2018-09-12T22:39:13.565Z,63.6
2018-09-12T22:55:59.767Z,63.6
2018-09-12T23:12:46.181Z,63.2
2018-09-12T23:29:32.673Z,62.8
2018-09-12T23:46:19.286Z,63.2
